sensor_id;sensor_type;location;lat;lon;timestamp;pressure;altitude;pressure_sealevel;temperature;humidity
35151;BME280;55720;51.972;4.624;2023-04-10T00:00:08;102128.56;;;7.63;100.00
35151;BME280;55720;51.972;4.624;2023-04-10T00:02:34;102124.28;;;7.36;100.00
35151;BME280;55720;51.972;4.624;2023-04-10T00:05:01;102116.09;;;7.36;100.00
35151;BME280;55720;51.972;4.624;2023-04-10T00:07:27;102103.56;;;7.30;100.00
35151;BME280;55720;51.972;4.624;2023-04-10T00:09:52;102098.88;;;7.41;100.00
35151;BME280;55720;51.972;4.624;2023-04-10T00:12:18;102099.97;;;7.40;100.00
35151;BME280;55720;51.972;4.624;2023-04-10T00:14:43;102090.63;;;7.46;100.00
35151;BME280;55720;51.972;4.624;2023-04-10T00:17:09;102091.47;;;7.41;100.00
35151;BME280;55720;51.972;4.624;2023-04-10T00:19:35;102088.47;;;7.38;100.00
35151;BME280;55720;51.972;4.624;2023-04-10T00:22:00;102082.66;;;7.55;100.00
35151;BME280;55720;51.972;4.624;2023-04-10T00:24:26;102086.75;;;7.57;100.00
35151;BME280;55720;51.972;4.624;2023-04-10T00:26:51;102087.06;;;7.46;100.00
35151;BME280;55720;51.972;4.624;2023-04-10T00:29:17;102091.97;;;7.54;100.00
35151;BME280;55720;51.972;4.624;2023-04-10T00:31:43;102093.34;;;7.51;100.00
35151;BME280;55720;51.972;4.624;2023-04-10T00:34:08;102086.94;;;7.71;100.00
35151;BME280;55720;51.972;4.624;2023-04-10T00:36:34;102094.69;;;7.59;100.00
35151;BME280;55720;51.972;4.624;2023-04-10T00:38:59;102096.59;;;7.53;100.00
35151;BME280;55720;51.972;4.624;2023-04-10T00:41:25;102093.84;;;7.58;100.00
35151;BME280;55720;51.972;4.624;2023-04-10T00:43:55;102086.81;;;7.47;100.00
35151;BME280;55720;51.972;4.624;2023-04-10T00:46:21;102084.34;;;7.46;100.00
35151;BME280;55720;51.972;4.624;2023-04-10T00:48:51;102075.31;;;7.50;100.00
35151;BME280;55720;51.972;4.624;2023-04-10T00:51:20;102073.16;;;7.42;100.00
35151;BME280;55720;51.972;4.624;2023-04-10T00:53:47;102065.53;;;7.39;100.00
35151;BME280;55720;51.972;4.624;2023-04-10T00:56:18;102058.63;;;7.52;100.00
35151;BME280;55720;51.972;4.624;2023-04-10T00:58:45;102058.09;;;7.50;100.00
35151;BME280;55720;51.972;4.624;2023-04-10T01:01:10;102060.47;;;7.61;100.00
35151;BME280;55720;51.972;4.624;2023-04-10T01:03:37;102048.53;;;7.52;100.00
35151;BME280;55720;51.972;4.624;2023-04-10T01:11:56;102025.88;;;7.41;100.00
35151;BME280;55720;51.972;4.624;2023-04-10T01:14:29;102024.19;;;7.56;100.00
35151;BME280;55720;51.972;4.624;2023-04-10T01:17:03;102025.88;;;7.41;100.00
35151;BME280;55720;51.972;4.624;2023-04-10T01:19:39;102013.94;;;7.27;100.00
35151;BME280;55720;51.972;4.624;2023-04-10T01:22:14;102008.47;;;7.27;100.00
35151;BME280;55720;51.972;4.624;2023-04-10T01:30:17;101999.81;;;7.15;100.00
35151;BME280;55720;51.972;4.624;2023-04-10T01:32:47;101997.84;;;7.26;100.00
35151;BME280;55720;51.972;4.624;2023-04-10T01:35:14;101999.19;;;7.28;100.00
35151;BME280;55720;51.972;4.624;2023-04-10T01:37:41;101995.44;;;7.19;100.00
35151;BME280;55720;51.972;4.624;2023-04-10T01:40:10;102000.00;;;7.29;100.00
35151;BME280;55720;51.972;4.624;2023-04-10T01:42:42;101996.78;;;7.22;100.00
35151;BME280;55720;51.972;4.624;2023-04-10T01:45:12;101994.81;;;7.27;100.00
35151;BME280;55720;51.972;4.624;2023-04-10T01:47:41;101994.03;;;7.27;100.00
35151;BME280;55720;51.972;4.624;2023-04-10T01:50:07;101989.41;;;7.17;100.00
35151;BME280;55720;51.972;4.624;2023-04-10T01:52:34;101984.69;;;7.33;100.00
35151;BME280;55720;51.972;4.624;2023-04-10T01:55:00;101985.03;;;7.21;100.00
35151;BME280;55720;51.972;4.624;2023-04-10T01:57:28;101986.69;;;7.17;100.00
35151;BME280;55720;51.972;4.624;2023-04-10T01:59:56;101986.38;;;7.24;100.00
35151;BME280;55720;51.972;4.624;2023-04-10T02:02:21;101982.31;;;7.21;100.00
35151;BME280;55720;51.972;4.624;2023-04-10T02:04:47;101980.06;;;7.28;100.00
35151;BME280;55720;51.972;4.624;2023-04-10T02:07:38;101983.53;;;7.44;100.00
35151;BME280;55720;51.972;4.624;2023-04-10T02:10:46;101983.03;;;7.37;100.00
35151;BME280;55720;51.972;4.624;2023-04-10T02:13:15;101987.09;;;7.39;100.00
35151;BME280;55720;51.972;4.624;2023-04-10T02:15:45;101989.97;;;7.19;100.00
35151;BME280;55720;51.972;4.624;2023-04-10T02:18:14;101985.59;;;7.18;100.00
35151;BME280;55720;51.972;4.624;2023-04-10T02:20:41;101976.28;;;7.24;100.00
35151;BME280;55720;51.972;4.624;2023-04-10T02:23:06;101974.59;;;7.33;100.00
35151;BME280;55720;51.972;4.624;2023-04-10T02:25:33;101975.94;;;7.31;100.00
35151;BME280;55720;51.972;4.624;2023-04-10T02:28:06;101976.84;;;7.21;100.00
35151;BME280;55720;51.972;4.624;2023-04-10T02:30:32;101980.25;;;7.42;100.00
35151;BME280;55720;51.972;4.624;2023-04-10T02:32:58;101974.91;;;7.27;100.00
35151;BME280;55720;51.972;4.624;2023-04-10T02:35:23;101979.56;;;7.21;100.00
35151;BME280;55720;51.972;4.624;2023-04-10T02:37:50;101980.53;;;6.97;100.00
35151;BME280;55720;51.972;4.624;2023-04-10T02:40:15;101976.09;;;7.06;100.00
35151;BME280;55720;51.972;4.624;2023-04-10T02:42:41;101979.19;;;6.89;100.00
35151;BME280;55720;51.972;4.624;2023-04-10T02:45:08;101972.06;;;6.98;100.00
35151;BME280;55720;51.972;4.624;2023-04-10T02:47:33;101972.59;;;7.00;100.00
35151;BME280;55720;51.972;4.624;2023-04-10T02:49:59;101970.44;;;6.97;100.00
35151;BME280;55720;51.972;4.624;2023-04-10T02:52:24;101973.94;;;7.03;100.00
35151;BME280;55720;51.972;4.624;2023-04-10T02:54:50;101980.28;;;6.93;100.00
35151;BME280;55720;51.972;4.624;2023-04-10T02:57:16;101970.19;;;6.88;100.00
35151;BME280;55720;51.972;4.624;2023-04-10T02:59:41;101966.41;;;6.79;100.00
35151;BME280;55720;51.972;4.624;2023-04-10T03:02:07;101955.47;;;6.84;100.00
35151;BME280;55720;51.972;4.624;2023-04-10T03:04:33;101957.03;;;7.01;100.00
35151;BME280;55720;51.972;4.624;2023-04-10T03:06:58;101948.31;;;6.93;100.00
35151;BME280;55720;51.972;4.624;2023-04-10T03:09:24;101960.03;;;6.99;100.00
35151;BME280;55720;51.972;4.624;2023-04-10T03:11:49;101961.41;;;6.97;100.00
35151;BME280;55720;51.972;4.624;2023-04-10T03:14:15;101958.19;;;6.89;100.00
35151;BME280;55720;51.972;4.624;2023-04-10T03:16:41;101969.06;;;6.94;100.00
35151;BME280;55720;51.972;4.624;2023-04-10T03:19:06;101964.16;;;6.97;100.00
35151;BME280;55720;51.972;4.624;2023-04-10T03:21:31;101971.03;;;7.33;100.00
35151;BME280;55720;51.972;4.624;2023-04-10T03:23:57;101975.19;;;7.25;100.00
35151;BME280;55720;51.972;4.624;2023-04-10T03:26:22;101980.25;;;7.42;100.00
35151;BME280;55720;51.972;4.624;2023-04-10T03:28:48;101981.16;;;7.32;100.00
35151;BME280;55720;51.972;4.624;2023-04-10T03:31:14;101988.59;;;7.61;100.00
35151;BME280;55720;51.972;4.624;2023-04-10T03:33:39;101978.56;;;7.51;100.00
35151;BME280;55720;51.972;4.624;2023-04-10T03:36:05;101981.81;;;7.53;100.00
35151;BME280;55720;51.972;4.624;2023-04-10T03:38:31;101992.31;;;7.41;100.00
35151;BME280;55720;51.972;4.624;2023-04-10T03:40:56;101976.94;;;7.50;100.00
35151;BME280;55720;51.972;4.624;2023-04-10T03:43:23;101979.19;;;7.38;100.00
35151;BME280;55720;51.972;4.624;2023-04-10T03:45:49;101972.63;;;7.39;100.00
35151;BME280;55720;51.972;4.624;2023-04-10T03:48:14;101967.38;;;7.81;100.00
35151;BME280;55720;51.972;4.624;2023-04-10T03:50:40;101977.66;;;7.61;100.00
35151;BME280;55720;51.972;4.624;2023-04-10T03:53:05;101970.53;;;7.65;100.00
35151;BME280;55720;51.972;4.624;2023-04-10T03:55:31;101973.75;;;7.72;100.00
35151;BME280;55720;51.972;4.624;2023-04-10T03:57:56;101969.47;;;7.61;100.00
35151;BME280;55720;51.972;4.624;2023-04-10T04:00:23;101971.00;;;7.77;100.00
35151;BME280;55720;51.972;4.624;2023-04-10T04:02:49;101972.06;;;7.81;100.00
35151;BME280;55720;51.972;4.624;2023-04-10T04:05:16;101962.94;;;7.90;100.00
35151;BME280;55720;51.972;4.624;2023-04-10T04:07:41;101972.88;;;8.10;100.00
35151;BME280;55720;51.972;4.624;2023-04-10T04:10:07;101971.28;;;8.04;100.00
35151;BME280;55720;51.972;4.624;2023-04-10T04:12:32;101962.56;;;8.02;100.00
35151;BME280;55720;51.972;4.624;2023-04-10T04:14:57;101972.09;;;8.05;100.00
35151;BME280;55720;51.972;4.624;2023-04-10T04:17:23;101971.88;;;8.01;100.00
35151;BME280;55720;51.972;4.624;2023-04-10T04:19:48;101968.44;;;7.85;100.00
35151;BME280;55720;51.972;4.624;2023-04-10T04:22:14;101965.66;;;7.90;100.00
35151;BME280;55720;51.972;4.624;2023-04-10T04:24:39;101971.19;;;8.14;100.00
35151;BME280;55720;51.972;4.624;2023-04-10T04:27:05;101968.84;;;8.03;100.00
35151;BME280;55720;51.972;4.624;2023-04-10T04:29:30;101968.31;;;8.01;100.00
35151;BME280;55720;51.972;4.624;2023-04-10T04:31:55;101966.00;;;8.13;100.00
35151;BME280;55720;51.972;4.624;2023-04-10T04:34:21;101960.34;;;8.04;100.00
35151;BME280;55720;51.972;4.624;2023-04-10T04:36:46;101960.09;;;8.01;100.00
35151;BME280;55720;51.972;4.624;2023-04-10T04:39:12;101949.41;;;8.04;100.00
35151;BME280;55720;51.972;4.624;2023-04-10T04:41:37;101952.22;;;7.99;100.00
35151;BME280;55720;51.972;4.624;2023-04-10T04:44:03;101948.19;;;8.15;100.00
35151;BME280;55720;51.972;4.624;2023-04-10T04:46:29;101949.28;;;8.14;100.00
35151;BME280;55720;51.972;4.624;2023-04-10T04:48:54;101941.78;;;8.25;100.00
35151;BME280;55720;51.972;4.624;2023-04-10T04:51:20;101947.44;;;8.10;100.00
35151;BME280;55720;51.972;4.624;2023-04-10T04:53:45;101936.50;;;8.38;100.00
35151;BME280;55720;51.972;4.624;2023-04-10T04:56:11;101948.75;;;8.17;100.00
35151;BME280;55720;51.972;4.624;2023-04-10T04:58:36;101947.28;;;8.25;100.00
35151;BME280;55720;51.972;4.624;2023-04-10T05:01:02;101944.94;;;8.13;100.00
35151;BME280;55720;51.972;4.624;2023-04-10T05:03:27;101951.53;;;8.12;100.00
35151;BME280;55720;51.972;4.624;2023-04-10T05:05:53;101952.22;;;7.99;100.00
35151;BME280;55720;51.972;4.624;2023-04-10T05:08:19;101941.53;;;7.98;100.00
35151;BME280;55720;51.972;4.624;2023-04-10T05:10:44;101947.28;;;7.96;100.00
35151;BME280;55720;51.972;4.624;2023-04-10T05:13:10;101943.47;;;7.97;100.00
35151;BME280;55720;51.972;4.624;2023-04-10T05:15:35;101943.06;;;8.09;100.00
35151;BME280;55720;51.972;4.624;2023-04-10T05:18:01;101952.91;;;8.10;100.00
35151;BME280;55720;51.972;4.624;2023-04-10T05:20:26;101951.25;;;8.14;100.00
35151;BME280;55720;51.972;4.624;2023-04-10T05:22:52;101951.31;;;8.04;100.00
35151;BME280;55720;51.972;4.624;2023-04-10T05:25:18;101954.22;;;8.17;100.00
35151;BME280;55720;51.972;4.624;2023-04-10T05:27:43;101948.16;;;8.20;100.00
35151;BME280;55720;51.972;4.624;2023-04-10T05:30:09;101954.44;;;8.21;100.00
35151;BME280;55720;51.972;4.624;2023-04-10T05:32:34;101959.16;;;8.15;100.00
35151;BME280;55720;51.972;4.624;2023-04-10T05:35:00;101958.53;;;8.23;100.00
35151;BME280;55720;51.972;4.624;2023-04-10T05:37:25;101955.19;;;8.26;100.00
35151;BME280;55720;51.972;4.624;2023-04-10T05:39:51;101954.66;;;8.29;100.00
35151;BME280;55720;51.972;4.624;2023-04-10T05:42:16;101954.38;;;8.31;100.00
35151;BME280;55720;51.972;4.624;2023-04-10T05:44:43;101952.38;;;8.36;100.00
35151;BME280;55720;51.972;4.624;2023-04-10T05:47:08;101945.22;;;8.40;100.00
35151;BME280;55720;51.972;4.624;2023-04-10T05:49:34;101944.16;;;8.36;100.00
35151;BME280;55720;51.972;4.624;2023-04-10T05:52:00;101942.25;;;8.37;100.00
35151;BME280;55720;51.972;4.624;2023-04-10T05:54:25;101945.81;;;8.37;100.00
35151;BME280;55720;51.972;4.624;2023-04-10T05:56:51;101934.59;;;8.39;100.00
35151;BME280;55720;51.972;4.624;2023-04-10T05:59:16;101937.84;;;8.41;100.00
35151;BME280;55720;51.972;4.624;2023-04-10T06:01:43;101930.44;;;8.42;100.00
35151;BME280;55720;51.972;4.624;2023-04-10T06:04:08;101933.41;;;8.45;100.00
35151;BME280;55720;51.972;4.624;2023-04-10T06:06:34;101927.34;;;8.48;100.00
35151;BME280;55720;51.972;4.624;2023-04-10T06:08:59;101929.44;;;8.56;100.00
35151;BME280;55720;51.972;4.624;2023-04-10T06:11:25;101930.31;;;8.52;100.00
35151;BME280;55720;51.972;4.624;2023-04-10T06:13:50;101923.19;;;8.51;100.00
35151;BME280;55720;51.972;4.624;2023-04-10T06:16:16;101915.53;;;8.53;100.00
35151;BME280;55720;51.972;4.624;2023-04-10T06:18:41;101917.91;;;8.59;100.00
35151;BME280;55720;51.972;4.624;2023-04-10T06:21:08;101915.91;;;8.65;100.00
35151;BME280;55720;51.972;4.624;2023-04-10T06:23:33;101912.59;;;8.68;100.00
35151;BME280;55720;51.972;4.624;2023-04-10T06:26:00;101912.38;;;8.64;100.00
35151;BME280;55720;51.972;4.624;2023-04-10T06:28:27;101890.16;;;8.66;100.00
35151;BME280;55720;51.972;4.624;2023-04-10T06:30:53;101886.94;;;8.64;100.00
35151;BME280;55720;51.972;4.624;2023-04-10T06:33:18;101884.41;;;8.67;100.00
35151;BME280;55720;51.972;4.624;2023-04-10T06:35:43;101880.53;;;8.68;100.00
35151;BME280;55720;51.972;4.624;2023-04-10T06:38:09;101879.16;;;8.71;100.00
35151;BME280;55720;51.972;4.624;2023-04-10T06:40:35;101868.66;;;8.78;100.00
35151;BME280;55720;51.972;4.624;2023-04-10T06:43:00;101867.41;;;8.89;100.00
35151;BME280;55720;51.972;4.624;2023-04-10T06:45:26;101864.72;;;8.84;100.00
35151;BME280;55720;51.972;4.624;2023-04-10T06:47:52;101863.41;;;9.00;100.00
35151;BME280;55720;51.972;4.624;2023-04-10T06:50:17;101856.28;;;9.18;100.00
35151;BME280;55720;51.972;4.624;2023-04-10T06:52:44;101854.25;;;9.23;100.00
35151;BME280;55720;51.972;4.624;2023-04-10T06:55:10;101849.31;;;9.25;100.00
35151;BME280;55720;51.972;4.624;2023-04-10T06:57:37;101846.41;;;9.35;100.00
35151;BME280;55720;51.972;4.624;2023-04-10T07:00:03;101836.84;;;9.65;100.00
35151;BME280;55720;51.972;4.624;2023-04-10T07:02:28;101833.69;;;9.58;100.00
35151;BME280;55720;51.972;4.624;2023-04-10T07:04:55;101826.91;;;9.83;100.00
35151;BME280;55720;51.972;4.624;2023-04-10T07:07:21;101819.78;;;9.68;100.00
35151;BME280;55720;51.972;4.624;2023-04-10T07:09:46;101825.88;;;9.65;100.00
35151;BME280;55720;51.972;4.624;2023-04-10T07:12:12;101823.25;;;10.01;100.00
35151;BME280;55720;51.972;4.624;2023-04-10T07:14:37;101824.38;;;10.27;100.00
35151;BME280;55720;51.972;4.624;2023-04-10T07:17:03;101806.09;;;10.36;100.00
35151;BME280;55720;51.972;4.624;2023-04-10T07:19:28;101802.97;;;10.16;100.00
35151;BME280;55720;51.972;4.624;2023-04-10T07:21:54;101803.63;;;10.35;100.00
35151;BME280;55720;51.972;4.624;2023-04-10T07:24:19;101807.72;;;10.24;100.00
35151;BME280;55720;51.972;4.624;2023-04-10T07:26:45;101805.16;;;10.00;100.00
35151;BME280;55720;51.972;4.624;2023-04-10T07:29:36;101795.63;;;10.25;100.00
35151;BME280;55720;51.972;4.624;2023-04-10T07:32:01;101793.78;;;10.20;100.00
35151;BME280;55720;51.972;4.624;2023-04-10T07:34:27;101780.53;;;10.50;100.00
35151;BME280;55720;51.972;4.624;2023-04-10T07:36:53;101782.38;;;10.41;100.00
35151;BME280;55720;51.972;4.624;2023-04-10T07:39:19;101780.13;;;10.43;100.00
35151;BME280;55720;51.972;4.624;2023-04-10T07:41:46;101774.59;;;10.56;100.00
35151;BME280;55720;51.972;4.624;2023-04-10T07:44:12;101764.03;;;10.63;100.00
35151;BME280;55720;51.972;4.624;2023-04-10T07:49:13;101750.78;;;10.65;100.00
35151;BME280;55720;51.972;4.624;2023-04-10T07:51:39;101744.38;;;10.92;100.00
35151;BME280;55720;51.972;4.624;2023-04-10T07:54:04;101751.91;;;10.64;100.00
35151;BME280;55720;51.972;4.624;2023-04-10T07:56:30;101745.84;;;10.76;100.00
35151;BME280;55720;51.972;4.624;2023-04-10T07:58:58;101738.44;;;10.76;100.00
35151;BME280;55720;51.972;4.624;2023-04-10T08:01:24;101742.06;;;10.63;100.00
35151;BME280;55720;51.972;4.624;2023-04-10T08:03:50;101729.69;;;10.74;100.00
35151;BME280;55720;51.972;4.624;2023-04-10T08:06:16;101725.72;;;11.11;100.00
35151;BME280;55720;51.972;4.624;2023-04-10T08:08:41;101710.50;;;10.61;100.00
35151;BME280;55720;51.972;4.624;2023-04-10T08:11:21;101722.50;;;10.87;100.00
35151;BME280;55720;51.972;4.624;2023-04-10T08:13:47;101716.72;;;10.66;100.00
35151;BME280;55720;51.972;4.624;2023-04-10T08:16:13;101713.25;;;10.61;100.00
35151;BME280;55720;51.972;4.624;2023-04-10T08:18:38;101717.63;;;10.62;100.00
35151;BME280;55720;51.972;4.624;2023-04-10T08:21:04;101713.38;;;10.78;100.00
35151;BME280;55720;51.972;4.624;2023-04-10T08:23:29;101702.53;;;10.73;100.00
35151;BME280;55720;51.972;4.624;2023-04-10T08:25:55;101707.69;;;10.97;100.00
35151;BME280;55720;51.972;4.624;2023-04-10T08:28:20;101704.28;;;11.22;100.00
35151;BME280;55720;51.972;4.624;2023-04-10T08:30:45;101697.13;;;11.12;100.00
35151;BME280;55720;51.972;4.624;2023-04-10T08:33:11;101702.88;;;11.24;100.00
35151;BME280;55720;51.972;4.624;2023-04-10T08:35:36;101704.28;;;11.22;100.00
35151;BME280;55720;51.972;4.624;2023-04-10T08:38:02;101685.72;;;11.67;100.00
35151;BME280;55720;51.972;4.624;2023-04-10T08:40:27;101685.19;;;11.56;100.00
35151;BME280;55720;51.972;4.624;2023-04-10T08:42:52;101687.06;;;11.39;100.00
35151;BME280;55720;51.972;4.624;2023-04-10T08:45:18;101681.28;;;11.49;100.00
35151;BME280;55720;51.972;4.624;2023-04-10T08:47:44;101669.47;;;11.48;100.00
35151;BME280;55720;51.972;4.624;2023-04-10T08:50:12;101655.53;;;11.75;100.00
35151;BME280;55720;51.972;4.624;2023-04-10T08:52:42;101654.41;;;11.85;100.00
35151;BME280;55720;51.972;4.624;2023-04-10T08:55:11;101653.00;;;11.65;100.00
35151;BME280;55720;51.972;4.624;2023-04-10T08:57:37;101650.03;;;11.93;100.00
35151;BME280;55720;51.972;4.624;2023-04-10T09:00:03;101633.84;;;12.08;100.00
35151;BME280;55720;51.972;4.624;2023-04-10T09:02:29;101642.13;;;12.25;100.00
35151;BME280;55720;51.972;4.624;2023-04-10T09:04:56;101635.47;;;12.26;100.00
35151;BME280;55720;51.972;4.624;2023-04-10T09:07:25;101628.03;;;11.93;100.00
35151;BME280;55720;51.972;4.624;2023-04-10T09:09:51;101624.13;;;11.85;100.00
35151;BME280;55720;51.972;4.624;2023-04-10T09:12:16;101628.97;;;11.71;100.00
35151;BME280;55720;51.972;4.624;2023-04-10T09:14:42;101636.75;;;11.86;100.00
35151;BME280;55720;51.972;4.624;2023-04-10T09:17:20;101630.78;;;12.18;100.00
35151;BME280;55720;51.972;4.624;2023-04-10T09:19:53;101628.19;;;12.05;100.00
35151;BME280;55720;51.972;4.624;2023-04-10T09:22:28;101622.69;;;12.48;100.00
35151;BME280;55720;51.972;4.624;2023-04-10T09:24:54;101612.13;;;12.41;100.00
35151;BME280;55720;51.972;4.624;2023-04-10T09:27:34;101602.69;;;12.68;100.00
35151;BME280;55720;51.972;4.624;2023-04-10T09:30:01;101588.94;;;12.59;100.00
35151;BME280;55720;51.972;4.624;2023-04-10T09:35:03;101591.91;;;12.28;100.00
35151;BME280;55720;51.972;4.624;2023-04-10T09:37:36;101591.41;;;12.26;100.00
35151;BME280;55720;51.972;4.624;2023-04-10T09:40:02;101597.25;;;12.16;100.00
35151;BME280;55720;51.972;4.624;2023-04-10T09:42:33;101587.22;;;12.20;100.00
35151;BME280;55720;51.972;4.624;2023-04-10T09:44:59;101582.00;;;12.53;100.00
35151;BME280;55720;51.972;4.624;2023-04-10T09:47:26;101573.41;;;12.55;100.00
35151;BME280;55720;51.972;4.624;2023-04-10T09:49:57;101572.81;;;12.87;100.00
35151;BME280;55720;51.972;4.624;2023-04-10T09:54:55;101572.69;;;12.75;100.00
35151;BME280;55720;51.972;4.624;2023-04-10T09:57:22;101564.56;;;12.78;100.00
35151;BME280;55720;51.972;4.624;2023-04-10T09:59:50;101552.06;;;12.81;100.00
35151;BME280;55720;51.972;4.624;2023-04-10T10:02:17;101543.72;;;12.69;100.00
35151;BME280;55720;51.972;4.624;2023-04-10T10:04:45;101545.88;;;13.30;100.00
35151;BME280;55720;51.972;4.624;2023-04-10T10:07:13;101543.75;;;13.57;100.00
35151;BME280;55720;51.972;4.624;2023-04-10T10:09:39;101531.69;;;13.41;100.00
35151;BME280;55720;51.972;4.624;2023-04-10T10:12:07;101529.59;;;13.08;100.00
35151;BME280;55720;51.972;4.624;2023-04-10T10:14:44;101528.94;;;13.41;100.00
35151;BME280;55720;51.972;4.624;2023-04-10T10:17:13;101523.25;;;13.66;100.00
35151;BME280;55720;51.972;4.624;2023-04-10T10:20:01;101517.22;;;14.06;100.00
35151;BME280;55720;51.972;4.624;2023-04-10T10:22:28;101492.75;;;14.73;100.00
35151;BME280;55720;51.972;4.624;2023-04-10T10:24:55;101484.81;;;14.84;100.00
35151;BME280;55720;51.972;4.624;2023-04-10T10:27:22;101490.59;;;15.67;100.00
35151;BME280;55720;51.972;4.624;2023-04-10T10:29:52;101477.06;;;15.78;100.00
35151;BME280;55720;51.972;4.624;2023-04-10T10:32:18;101472.94;;;15.72;100.00
35151;BME280;55720;51.972;4.624;2023-04-10T10:34:44;101465.59;;;15.64;100.00
35151;BME280;55720;51.972;4.624;2023-04-10T10:37:10;101449.97;;;15.19;100.00
35151;BME280;55720;51.972;4.624;2023-04-10T10:45:16;101412.03;;;16.78;100.00
35151;BME280;55720;51.972;4.624;2023-04-10T10:47:53;101400.50;;;16.76;100.00
35151;BME280;55720;51.972;4.624;2023-04-10T10:50:19;101395.03;;;16.33;100.00
35151;BME280;55720;51.972;4.624;2023-04-10T10:52:50;101382.78;;;16.18;100.00
35151;BME280;55720;51.972;4.624;2023-04-10T10:57:55;101379.13;;;16.14;100.00
35151;BME280;55720;51.972;4.624;2023-04-10T11:00:23;101393.25;;;16.09;100.00
35151;BME280;55720;51.972;4.624;2023-04-10T11:08:48;101364.72;;;16.40;100.00
35151;BME280;55720;51.972;4.624;2023-04-10T11:19:07;101339.53;;;16.13;100.00
35151;BME280;55720;51.972;4.624;2023-04-10T11:21:33;101340.41;;;16.49;100.00
35151;BME280;55720;51.972;4.624;2023-04-10T11:31:37;101335.94;;;15.66;100.00
35151;BME280;55720;51.972;4.624;2023-04-10T11:34:07;101338.00;;;15.85;100.00
35151;BME280;55720;51.972;4.624;2023-04-10T11:36:34;101335.09;;;15.38;100.00
35151;BME280;55720;51.972;4.624;2023-04-10T11:41:43;101334.50;;;15.72;100.00
35151;BME280;55720;51.972;4.624;2023-04-10T11:44:11;101318.25;;;15.70;100.00
35151;BME280;55720;51.972;4.624;2023-04-10T11:46:43;101310.50;;;15.48;100.00
35151;BME280;55720;51.972;4.624;2023-04-10T11:49:20;101316.91;;;15.09;100.00
35151;BME280;55720;51.972;4.624;2023-04-10T11:51:50;101317.09;;;14.88;100.00
35151;BME280;55720;51.972;4.624;2023-04-10T11:54:20;101317.38;;;14.59;100.00
35151;BME280;55720;51.972;4.624;2023-04-10T11:59:26;101309.25;;;14.90;100.00
35151;BME280;55720;51.972;4.624;2023-04-10T12:01:52;101309.59;;;14.89;100.00
35151;BME280;55720;51.972;4.624;2023-04-10T12:04:22;101308.56;;;14.93;100.00
35151;BME280;55720;51.972;4.624;2023-04-10T12:06:52;101301.94;;;14.70;100.00
35151;BME280;55720;51.972;4.624;2023-04-10T12:09:20;101299.75;;;14.75;100.00
35151;BME280;55720;51.972;4.624;2023-04-10T12:11:50;101298.03;;;14.59;100.00
35151;BME280;55720;51.972;4.624;2023-04-10T12:14:16;101299.91;;;14.43;100.00
35151;BME280;55720;51.972;4.624;2023-04-10T12:16:42;101297.97;;;14.43;100.00
35151;BME280;55720;51.972;4.624;2023-04-10T12:19:08;101305.88;;;14.45;100.00
35151;BME280;55720;51.972;4.624;2023-04-10T12:21:37;101303.81;;;14.42;100.00
35151;BME280;55720;51.972;4.624;2023-04-10T12:24:04;101316.50;;;14.43;100.00
35151;BME280;55720;51.972;4.624;2023-04-10T12:26:29;101323.81;;;14.26;100.00
35151;BME280;55720;51.972;4.624;2023-04-10T12:28:56;101329.47;;;14.18;100.00
35151;BME280;55720;51.972;4.624;2023-04-10T12:31:29;101334.41;;;14.12;100.00
35151;BME280;55720;51.972;4.624;2023-04-10T12:33:59;101334.16;;;14.05;100.00
35151;BME280;55720;51.972;4.624;2023-04-10T12:36:29;101335.31;;;14.04;100.00
35151;BME280;55720;51.972;4.624;2023-04-10T12:38:57;101333.47;;;13.96;100.00
35151;BME280;55720;51.972;4.624;2023-04-10T12:41:25;101322.88;;;13.98;100.00
35151;BME280;55720;51.972;4.624;2023-04-10T12:44:10;101318.97;;;13.87;100.00
35151;BME280;55720;51.972;4.624;2023-04-10T12:46:36;101333.78;;;13.82;100.00
35151;BME280;55720;51.972;4.624;2023-04-10T12:49:15;101350.78;;;13.40;100.00
35151;BME280;55720;51.972;4.624;2023-04-10T12:51:49;101361.09;;;13.10;100.00
35151;BME280;55720;51.972;4.624;2023-04-10T12:54:34;101358.72;;;13.00;100.00
35151;BME280;55720;51.972;4.624;2023-04-10T12:57:02;101351.00;;;12.93;100.00
35151;BME280;55720;51.972;4.624;2023-04-10T12:59:30;101339.69;;;12.86;100.00
35151;BME280;55720;51.972;4.624;2023-04-10T13:01:56;101337.66;;;12.74;100.00
35151;BME280;55720;51.972;4.624;2023-04-10T13:04:22;101325.50;;;12.55;100.00
35151;BME280;55720;51.972;4.624;2023-04-10T13:06:48;101325.41;;;12.43;100.00
35151;BME280;55720;51.972;4.624;2023-04-10T13:09:14;101314.63;;;12.29;100.00
35151;BME280;55720;51.972;4.624;2023-04-10T13:11:40;101307.25;;;12.12;100.00
35151;BME280;55720;51.972;4.624;2023-04-10T13:14:07;101297.75;;;12.01;100.00
35151;BME280;55720;51.972;4.624;2023-04-10T13:16:32;101284.03;;;11.93;100.00
35151;BME280;55720;51.972;4.624;2023-04-10T13:18:58;101271.41;;;11.92;100.00
35151;BME280;55720;51.972;4.624;2023-04-10T13:21:23;101258.16;;;11.94;100.00
35151;BME280;55720;51.972;4.624;2023-04-10T13:23:51;101244.03;;;11.95;100.00
35151;BME280;55720;51.972;4.624;2023-04-10T13:26:16;101233.31;;;12.02;100.00
35151;BME280;55720;51.972;4.624;2023-04-10T13:28:43;101207.03;;;12.13;100.00
35151;BME280;55720;51.972;4.624;2023-04-10T13:31:08;101196.00;;;12.13;100.00
35151;BME280;55720;51.972;4.624;2023-04-10T13:33:33;101187.63;;;12.10;100.00
35151;BME280;55720;51.972;4.624;2023-04-10T13:35:59;101185.53;;;12.07;100.00
35151;BME280;55720;51.972;4.624;2023-04-10T13:38:24;101178.41;;;12.06;100.00